Time;durP1;ratioP1;P1;durP2;ratioP2;P2;SDS_P1;SDS_P2;PMS_P1;PMS_P2;Temp;Humidity;BMP_temperature;BMP_pressure;BME280_temperature;BME280_humidity;BME280_pressure;Samples;Min_cycle;Max_cycle;Signal;HPM_P1;HPM_P2
2022/10/04 00:01:15;;;;;;;17.43;15.87;;;6.40;99.90;;;;;;5025382;28;20209;-81
2022/10/04 00:03:46;;;;;;;17.60;16.00;;;6.40;99.90;;;;;;5030046;28;20201;-81
2022/10/04 00:06:17;;;;;;;16.53;15.13;;;6.40;99.90;;;;;;5034483;28;20202;-81
2022/10/04 00:08:50;;;;;;;16.90;15.53;;;6.40;99.90;;;;;;5034763;28;20201;-81
2022/10/04 00:11:22;;;;;;;18.47;16.60;;;6.30;99.90;;;;;;5035843;28;20199;-82
2022/10/04 00:13:53;;;;;;;18.40;16.70;;;6.30;99.90;;;;;;5022392;28;20250;-81
2022/10/04 00:16:24;;;;;;;17.87;16.37;;;6.30;99.90;;;;;;5022074;28;20228;-81
2022/10/04 00:19:01;;;;;;;18.27;16.50;;;6.40;99.90;;;;;;5036758;28;20204;-81
2022/10/04 00:22:02;;;;;;;18.43;16.80;;;6.40;99.90;;;;;;5026152;28;20216;-81
2022/10/04 00:24:30;;;;;;;18.53;16.83;;;6.40;99.90;;;;;;5027413;28;20188;-81
2022/10/04 00:27:19;;;;;;;17.53;16.07;;;6.40;99.90;;;;;;5022837;28;20225;-81
2022/10/04 00:30:09;;;;;;;19.60;17.63;;;6.50;99.90;;;;;;5028114;28;20205;-81
2022/10/04 00:32:47;;;;;;;17.43;15.83;;;6.50;99.90;;;;;;5026987;28;20208;-81
2022/10/04 00:35:50;;;;;;;17.87;16.10;;;6.40;99.90;;;;;;5034918;28;20207;-81
2022/10/04 00:38:25;;;;;;;18.47;16.90;;;6.40;99.90;;;;;;5025084;28;20245;-81
2022/10/04 00:40:59;;;;;;;19.37;17.57;;;6.40;99.90;;;;;;5030067;28;20203;-81
2022/10/04 00:43:31;;;;;;;19.70;17.80;;;6.40;99.90;;;;;;5033487;28;20700;-81
2022/10/04 00:46:01;;;;;;;20.97;18.83;;;6.30;99.90;;;;;;5030095;28;20196;-81
2022/10/04 00:48:34;;;;;;;20.07;18.23;;;6.30;99.90;;;;;;5022358;28;20237;-82
2022/10/04 00:51:11;;;;;;;20.00;18.10;;;6.30;99.90;;;;;;5033607;28;20215;-82
2022/10/04 00:53:50;;;;;;;18.87;17.07;;;6.30;99.90;;;;;;5028350;28;20188;-82
2022/10/04 00:56:23;;;;;;;17.87;16.37;;;6.30;99.90;;;;;;5018359;28;20711;-82
2022/10/04 00:59:20;;;;;;;17.87;16.27;;;6.20;99.90;;;;;;5034547;28;20211;-82
2022/10/04 01:01:52;;;;;;;17.27;15.60;;;6.10;99.90;;;;;;5026656;28;20207;-81
2022/10/04 01:04:31;;;;;;;16.37;15.03;;;6.10;99.90;;;;;;5034583;28;20207;-81
2022/10/04 01:07:02;;;;;;;14.60;13.50;;;6.10;99.90;;;;;;5034438;28;20215;-82
2022/10/04 01:09:33;;;;;;;13.70;12.80;;;5.90;99.90;;;;;;5025158;28;20254;-81
2022/10/04 01:12:05;;;;;;;13.73;12.73;;;5.90;99.90;;;;;;5033463;28;20212;-81
2022/10/04 01:14:41;;;;;;;14.10;13.10;;;5.80;99.90;;;;;;5028252;28;20230;-81
2022/10/04 01:17:09;;;;;;;15.27;14.07;;;5.80;99.90;;;;;;5033220;28;20231;-82
2022/10/04 01:19:36;;;;;;;14.23;13.23;;;5.80;99.90;;;;;;5021398;28;20228;-82
2022/10/04 01:22:14;;;;;;;14.07;13.07;;;5.70;99.90;;;;;;5030852;28;20211;-81
2022/10/04 01:24:44;;;;;;;14.47;13.47;;;5.70;99.90;;;;;;5029380;28;20201;-81
2022/10/04 01:27:32;;;;;;;14.60;13.50;;;5.70;99.90;;;;;;5022517;28;20222;-82
2022/10/04 01:29:59;;;;;;;14.63;13.53;;;5.70;99.90;;;;;;5033110;28;20192;-81
2022/10/04 01:32:26;;;;;;;14.57;13.53;;;5.80;99.90;;;;;;5016743;28;20728;-82
2022/10/04 01:34:53;;;;;;;13.90;12.90;;;5.70;99.90;;;;;;5020893;28;20208;-81
2022/10/04 01:37:20;;;;;;;14.10;12.97;;;5.70;99.90;;;;;;5020112;28;20588;-81
2022/10/04 01:39:48;;;;;;;13.93;12.73;;;5.70;99.90;;;;;;5020697;28;20196;-81
2022/10/04 01:42:21;;;;;;;12.87;11.93;;;5.60;99.90;;;;;;5023108;28;20204;-81
2022/10/04 01:44:54;;;;;;;12.50;11.60;;;5.60;99.90;;;;;;5028915;28;20200;-81
2022/10/04 01:47:26;;;;;;;11.93;11.13;;;5.50;99.90;;;;;;5034323;28;20758;-81
2022/10/04 01:49:57;;;;;;;12.07;11.27;;;5.40;99.90;;;;;;5033075;28;20199;-82
2022/10/04 01:52:28;;;;;;;13.20;12.00;;;5.50;99.90;;;;;;5033018;28;20200;-82
2022/10/04 01:55:03;;;;;;;13.73;12.13;;;5.50;99.90;;;;;;5032917;28;20258;-81
2022/10/04 01:57:36;;;;;;;11.70;10.80;;;5.40;99.90;;;;;;5031113;28;20289;-82
2022/10/04 02:00:06;;;;;;;12.40;11.30;;;5.30;99.90;;;;;;5038081;28;20206;-80
2022/10/04 02:02:38;;;;;;;13.83;12.73;;;5.40;99.90;;;;;;5024864;28;20204;-81
2022/10/04 02:05:09;;;;;;;13.30;12.40;;;5.40;99.90;;;;;;5035298;28;20227;-81
2022/10/04 02:07:37;;;;;;;12.93;12.13;;;5.30;99.90;;;;;;5038161;28;20711;-82
2022/10/04 02:10:10;;;;;;;13.07;12.17;;;5.20;99.90;;;;;;5037430;28;20204;-79
2022/10/04 02:12:38;;;;;;;12.70;11.80;;;5.20;99.90;;;;;;5036320;28;20649;-81
2022/10/04 02:15:08;;;;;;;13.17;12.33;;;5.20;99.90;;;;;;5036633;28;20204;-81
2022/10/04 02:17:39;;;;;;;13.00;12.10;;;5.20;99.90;;;;;;5037688;28;20220;-81
2022/10/04 02:20:13;;;;;;;12.87;12.00;;;5.10;99.90;;;;;;5037269;28;20242;-81
2022/10/04 02:22:42;;;;;;;12.10;11.20;;;5.10;99.90;;;;;;5025375;28;20661;-81
2022/10/04 02:25:12;;;;;;;13.20;12.30;;;5.10;99.90;;;;;;5034918;28;20195;-81
2022/10/04 02:27:39;;;;;;;13.77;12.77;;;5.20;99.90;;;;;;5026932;28;20300;-82
2022/10/04 02:30:09;;;;;;;12.00;11.20;;;5.30;99.90;;;;;;5027028;28;20254;-81
2022/10/04 02:35:24;;;;;;;12.00;11.20;;;5.30;99.90;;;;;;5037561;28;20200;-81
2022/10/04 02:37:58;;;;;;;12.40;11.60;;;5.30;99.90;;;;;;5029427;28;20232;-81
2022/10/04 02:40:32;;;;;;;13.27;12.37;;;5.30;99.90;;;;;;5037289;28;20214;-82
2022/10/04 02:43:02;;;;;;;13.47;12.53;;;5.30;99.90;;;;;;5035593;28;20204;-80
2022/10/04 02:45:37;;;;;;;13.57;12.67;;;5.30;99.90;;;;;;5028450;28;20207;-81
2022/10/04 02:48:13;;;;;;;14.50;13.50;;;5.30;99.90;;;;;;5030432;28;20220;-80
2022/10/04 02:50:44;;;;;;;14.80;13.80;;;5.30;99.90;;;;;;5026412;28;20212;-80
2022/10/04 02:53:19;;;;;;;13.70;12.80;;;5.40;99.90;;;;;;5026457;28;20192;-77
2022/10/04 02:55:48;;;;;;;17.27;13.23;;;5.40;99.90;;;;;;5034473;28;20199;-78
2022/10/04 02:58:19;;;;;;;13.30;12.40;;;5.50;99.90;;;;;;5024467;28;20254;-79
2022/10/04 03:00:48;;;;;;;14.30;13.40;;;5.40;99.90;;;;;;5021984;28;20205;-79
2022/10/04 03:03:22;;;;;;;14.63;13.53;;;5.40;99.90;;;;;;5021091;28;20212;-78
2022/10/04 03:05:57;;;;;;;14.20;13.20;;;5.40;99.90;;;;;;5024305;28;20207;-79
2022/10/04 03:08:25;;;;;;;14.90;13.70;;;5.30;99.90;;;;;;5025272;28;20222;-79
2022/10/04 03:10:53;;;;;;;14.53;13.63;;;5.30;99.90;;;;;;5015666;28;20215;-79
2022/10/04 03:13:23;;;;;;;14.40;13.40;;;5.30;99.90;;;;;;5024064;28;20208;-79
2022/10/04 03:15:50;;;;;;;16.03;14.70;;;5.40;99.90;;;;;;5026242;28;20207;-80
2022/10/04 03:18:20;;;;;;;15.97;14.87;;;5.40;99.90;;;;;;5026937;28;20700;-84
2022/10/04 03:20:48;;;;;;;14.93;13.93;;;5.40;99.90;;;;;;5022484;28;20253;-79
2022/10/04 03:23:16;;;;;;;14.23;13.33;;;5.40;99.90;;;;;;5034511;28;20188;-79
2022/10/04 03:25:50;;;;;;;15.27;14.27;;;5.50;99.90;;;;;;5033611;28;20270;-79
2022/10/04 03:28:20;;;;;;;16.53;15.13;;;5.50;99.90;;;;;;5034819;28;20208;-80
2022/10/04 03:30:48;;;;;;;16.87;15.40;;;5.60;99.90;;;;;;5034603;28;20279;-79
2022/10/04 03:33:19;;;;;;;16.60;15.43;;;5.70;99.90;;;;;;5034304;28;20238;-79
2022/10/04 03:35:49;;;;;;;16.33;15.10;;;5.70;99.90;;;;;;5034370;28;20208;-79
2022/10/04 03:38:17;;;;;;;16.80;15.70;;;5.80;99.90;;;;;;5028371;28;20225;-80
2022/10/04 03:40:52;;;;;;;17.30;15.90;;;5.90;99.90;;;;;;5028622;28;20669;-80
2022/10/04 03:43:23;;;;;;;18.73;17.13;;;6.00;99.90;;;;;;5034098;28;20205;-80
2022/10/04 03:45:51;;;;;;;18.17;16.87;;;6.10;99.90;;;;;;5030532;28;20196;-82
2022/10/04 03:48:27;;;;;;;18.93;17.53;;;6.10;99.90;;;;;;5035003;28;20230;-82
2022/10/04 03:50:54;;;;;;;18.20;17.00;;;6.10;99.90;;;;;;5020795;28;20696;-82
2022/10/04 03:53:29;;;;;;;18.27;17.07;;;6.20;99.90;;;;;;5024168;28;20201;-82
2022/10/04 03:55:58;;;;;;;17.70;16.57;;;6.20;99.90;;;;;;5026117;28;20204;-82
2022/10/04 03:58:29;;;;;;;18.00;16.90;;;6.10;99.90;;;;;;5084487;22;20266;-76
2022/10/04 04:01:07;;;;;;;18.43;17.30;;;6.10;99.90;;;;;;5058786;28;20206;-77
2022/10/04 04:03:46;;;;;;;18.43;17.33;;;6.10;99.90;;;;;;5056210;28;20289;-76
2022/10/04 04:06:17;;;;;;;18.57;17.17;;;6.10;99.90;;;;;;5063431;28;20624;-76
2022/10/04 04:08:46;;;;;;;18.63;17.40;;;6.10;99.90;;;;;;5065366;28;20591;-76
2022/10/04 04:11:19;;;;;;;18.17;17.07;;;6.10;99.90;;;;;;5074666;28;20224;-76
2022/10/04 04:13:55;;;;;;;17.87;16.70;;;6.10;99.90;;;;;;5064116;28;20610;-76
2022/10/04 04:16:25;;;;;;;17.90;16.80;;;6.10;99.90;;;;;;5063976;28;20385;-76
2022/10/04 04:18:53;;;;;;;17.90;16.80;;;6.10;99.90;;;;;;5059875;28;20260;-76
2022/10/04 04:21:23;;;;;;;18.00;16.90;;;6.20;99.90;;;;;;5063525;28;20288;-76
2022/10/04 04:23:54;;;;;;;17.70;16.67;;;6.20;99.90;;;;;;5057574;28;20700;-76
2022/10/04 04:26:27;;;;;;;18.50;17.40;;;6.20;99.90;;;;;;5071782;28;20701;-76
2022/10/04 04:29:02;;;;;;;18.00;16.80;;;6.20;99.90;;;;;;5062791;28;20264;-76
2022/10/04 04:31:33;;;;;;;18.33;17.23;;;6.10;99.90;;;;;;5049139;28;20230;-76
2022/10/04 04:34:02;;;;;;;19.10;17.73;;;6.10;99.90;;;;;;5057835;28;20212;-76
2022/10/04 04:36:31;;;;;;;18.37;17.27;;;6.10;99.90;;;;;;5076173;28;20578;-76
2022/10/04 04:41:52;;;;;;;18.57;17.37;;;6.10;99.90;;;;;;5056311;28;20203;-76
2022/10/04 04:44:20;;;;;;;18.23;17.13;;;6.20;99.90;;;;;;5055372;28;20200;-76
2022/10/04 04:46:47;;;;;;;18.50;17.30;;;6.20;99.90;;;;;;5057520;28;20263;-76
2022/10/04 04:49:17;;;;;;;18.40;17.30;;;6.10;99.90;;;;;;5061182;28;20258;-76
2022/10/04 04:51:49;;;;;;;18.20;17.10;;;6.00;99.90;;;;;;5055306;28;20240;-77
2022/10/04 04:54:19;;;;;;;18.27;17.17;;;6.00;99.90;;;;;;5052645;28;20280;-76
2022/10/04 04:56:49;;;;;;;18.07;16.97;;;6.00;99.90;;;;;;5056492;28;20703;-76
2022/10/04 04:59:16;;;;;;;18.00;16.97;;;6.10;99.90;;;;;;5059025;28;20262;-77
2022/10/04 05:01:46;;;;;;;18.53;17.43;;;6.10;99.90;;;;;;5053127;28;20661;-76
2022/10/04 05:04:20;;;;;;;17.73;16.73;;;6.00;99.90;;;;;;5077307;28;20193;-76
2022/10/04 05:06:48;;;;;;;19.20;18.00;;;6.10;99.90;;;;;;5068284;28;20677;-76
2022/10/04 05:09:25;;;;;;;19.70;18.50;;;6.10;99.90;;;;;;5059901;28;20780;-76
2022/10/04 05:11:55;;;;;;;19.70;18.40;;;6.20;99.90;;;;;;5063206;28;20657;-77
2022/10/04 05:14:22;;;;;;;19.27;18.07;;;6.10;99.90;;;;;;5059940;28;20213;-76
2022/10/04 05:16:52;;;;;;;19.53;18.27;;;6.10;99.90;;;;;;5060718;28;20199;-76
2022/10/04 05:19:23;;;;;;;19.63;18.43;;;6.10;99.90;;;;;;5051864;28;20209;-76
2022/10/04 05:21:53;;;;;;;19.57;18.37;;;6.20;99.90;;;;;;5058066;28;20205;-76
2022/10/04 05:24:23;;;;;;;19.33;18.13;;;6.20;99.90;;;;;;5060821;28;20598;-78
2022/10/04 05:26:52;;;;;;;18.87;17.67;;;6.20;99.90;;;;;;5058431;28;20208;-76
2022/10/04 05:29:21;;;;;;;18.30;17.20;;;6.30;99.90;;;;;;5070640;28;20205;-76
2022/10/04 05:31:55;;;;;;;18.60;17.37;;;6.30;99.90;;;;;;5057673;28;20207;-77
2022/10/04 05:34:24;;;;;;;18.17;17.07;;;6.20;99.90;;;;;;5051973;28;20664;-76
2022/10/04 05:37:06;;;;;;;18.37;17.27;;;6.20;99.90;;;;;;5060305;28;20204;-76
2022/10/04 05:39:39;;;;;;;17.50;16.40;;;6.20;99.90;;;;;;5065962;28;20292;-76
2022/10/04 05:42:16;;;;;;;17.90;16.80;;;6.20;99.90;;;;;;5064966;28;20196;-76
2022/10/04 05:44:50;;;;;;;17.93;16.83;;;6.20;99.90;;;;;;5057478;28;20200;-77
2022/10/04 05:47:22;;;;;;;17.60;16.50;;;6.20;99.90;;;;;;5055001;28;20248;-77
2022/10/04 05:49:52;;;;;;;17.13;16.20;;;6.20;99.90;;;;;;5056773;28;20278;-76
2022/10/04 05:52:29;;;;;;;18.27;17.07;;;6.20;99.90;;;;;;5057586;28;20708;-77
2022/10/04 05:55:27;;;;;;;17.40;16.40;;;6.20;99.90;;;;;;5059038;28;20537;-77
2022/10/04 05:58:24;;;;;;;17.07;16.07;;;6.20;99.90;;;;;;5061465;28;20217;-77
2022/10/04 06:01:14;;;;;;;16.83;15.83;;;6.40;99.90;;;;;;5053934;28;20208;-77
2022/10/04 06:04:04;;;;;;;17.90;16.80;;;6.40;99.90;;;;;;5042825;28;20264;-77
2022/10/04 06:06:39;;;;;;;17.77;16.67;;;6.40;99.90;;;;;;5049759;28;20199;-77
2022/10/04 06:09:13;;;;;;;17.20;16.20;;;6.50;99.90;;;;;;5071198;28;20213;-77
2022/10/04 06:11:51;;;;;;;17.50;16.50;;;6.60;99.90;;;;;;5059442;28;20211;-77
2022/10/04 06:14:35;;;;;;;17.70;16.60;;;6.60;99.90;;;;;;5061222;28;20246;-77
2022/10/04 06:17:26;;;;;;;17.80;16.70;;;6.70;99.90;;;;;;5057169;28;20191;-77
2022/10/04 06:20:12;;;;;;;17.53;16.47;;;6.70;99.90;;;;;;5071505;28;20614;-78
2022/10/04 06:22:44;;;;;;;17.63;16.53;;;6.70;99.90;;;;;;5060493;28;20191;-78
2022/10/04 06:25:19;;;;;;;17.27;16.20;;;6.70;99.90;;;;;;5066592;28;20268;-78
2022/10/04 06:27:55;;;;;;;17.13;16.13;;;6.80;99.90;;;;;;5056177;28;20251;-78
2022/10/04 06:30:22;;;;;;;17.43;16.40;;;7.00;99.90;;;;;;5057766;28;20561;-78
2022/10/04 06:33:13;;;;;;;17.77;16.67;;;7.10;99.90;;;;;;5053230;28;20585;-78
2022/10/04 06:36:09;;;;;;;17.53;16.53;;;7.10;99.90;;;;;;5040160;28;20230;-78
2022/10/04 06:39:12;;;;;;;17.60;16.50;;;7.00;99.90;;;;;;5048531;28;20224;-78
2022/10/04 06:41:50;;;;;;;18.30;17.10;;;7.10;99.90;;;;;;5052189;28;20194;-78
2022/10/04 06:44:37;;;;;;;17.83;16.83;;;7.20;99.90;;;;;;5046447;28;20208;-78
2022/10/04 06:47:21;;;;;;;17.90;16.80;;;7.20;99.90;;;;;;5062524;28;20201;-78
2022/10/04 06:49:54;;;;;;;17.70;16.60;;;7.40;99.90;;;;;;5052021;28;20445;-77
2022/10/04 06:52:39;;;;;;;16.70;15.70;;;7.40;99.90;;;;;;5057602;28;20259;-77
2022/10/04 06:55:27;;;;;;;15.87;14.87;;;7.50;99.90;;;;;;5057129;28;20202;-77
2022/10/04 06:58:27;;;;;;;15.73;14.73;;;7.50;99.90;;;;;;5059884;28;20272;-77
2022/10/04 07:00:59;;;;;;;15.90;14.83;;;7.50;99.90;;;;;;5019913;28;20676;-78
2022/10/04 07:03:31;;;;;;;15.43;14.53;;;7.60;99.90;;;;;;5064227;28;20661;-77
2022/10/04 07:06:03;;;;;;;15.80;14.70;;;7.70;99.90;;;;;;5077352;28;20270;-77
2022/10/04 07:08:39;;;;;;;16.50;15.50;;;7.80;99.90;;;;;;5052545;28;20255;-77
2022/10/04 07:11:13;;;;;;;16.50;15.40;;;7.80;99.90;;;;;;5065409;28;20260;-77
2022/10/04 07:13:51;;;;;;;15.90;14.87;;;7.80;99.90;;;;;;5063535;28;20335;-77
2022/10/04 07:16:37;;;;;;;16.27;15.20;;;7.80;99.90;;;;;;5065901;28;20208;-77
2022/10/04 07:19:21;;;;;;;15.80;14.70;;;7.90;99.90;;;;;;5063822;28;20211;-77
2022/10/04 07:21:55;;;;;;;14.73;13.83;;;8.10;99.90;;;;;;5060540;28;20692;-77
2022/10/04 07:24:31;;;;;;;16.43;15.40;;;8.20;99.90;;;;;;5078071;28;20210;-77
2022/10/04 07:27:01;;;;;;;15.40;14.50;;;8.40;99.90;;;;;;5059417;28;20541;-77
2022/10/04 07:29:30;;;;;;;15.70;14.70;;;8.40;99.90;;;;;;5046580;28;20186;-77
2022/10/04 07:32:08;;;;;;;14.97;13.90;;;8.40;99.90;;;;;;5068492;28;20261;-77
2022/10/04 07:34:38;;;;;;;7.77;7.17;;;8.50;99.90;;;;;;5037914;28;20199;-77
2022/10/04 07:37:11;;;;;;;8.80;8.10;;;8.50;99.90;;;;;;5041565;28;20696;-76
2022/10/04 07:39:49;;;;;;;11.30;10.40;;;8.50;99.90;;;;;;5060490;28;20220;-76
2022/10/04 07:42:23;;;;;;;11.60;10.70;;;8.60;99.90;;;;;;5046428;28;20199;-77
2022/10/04 07:45:05;;;;;;;8.73;8.03;;;8.70;99.90;;;;;;5045408;28;20205;-76
2022/10/04 07:47:32;;;;;;;7.97;7.27;;;8.80;99.90;;;;;;5046354;28;20259;-77
2022/10/04 07:50:00;;;;;;;6.10;5.50;;;8.90;99.90;;;;;;5042994;28;20200;-77
2022/10/04 07:52:43;;;;;;;8.63;7.93;;;8.90;99.90;;;;;;5049087;28;20198;-77
2022/10/04 07:55:22;;;;;;;7.27;6.67;;;9.10;99.90;;;;;;5046172;28;20210;-77
2022/10/04 07:57:58;;;;;;;5.93;5.43;;;9.40;99.90;;;;;;5058772;28;20227;-78
2022/10/04 08:00:31;;;;;;;5.73;5.23;;;9.50;99.90;;;;;;5046806;28;20285;-78
2022/10/04 08:03:26;;;;;;;6.00;5.40;;;9.50;99.90;;;;;;5043877;28;20236;-77
2022/10/04 08:06:08;;;;;;;6.10;5.50;;;9.60;99.90;;;;;;5046350;28;20614;-77
2022/10/04 08:08:55;;;;;;;6.20;5.60;;;9.60;99.90;;;;;;5046596;28;20225;-77
2022/10/04 08:11:36;;;;;;;6.63;5.93;;;9.50;99.90;;;;;;5048888;28;20198;-77
2022/10/04 08:14:15;;;;;;;6.77;6.07;;;9.60;99.90;;;;;;5058474;28;20567;-77
2022/10/04 08:16:54;;;;;;;6.53;5.87;;;9.70;99.90;;;;;;5056716;28;20194;-77
2022/10/04 08:19:39;;;;;;;6.67;5.70;;;9.80;99.90;;;;;;5078868;28;20664;-77
2022/10/04 08:22:18;;;;;;;9.45;7.00;;;9.90;99.90;;;;;;5080656;28;20439;-77
2022/10/04 08:24:57;;;;;;;15.73;14.73;;;10.00;99.90;;;;;;5050430;28;20189;-77
2022/10/04 08:27:35;;;;;;;16.40;15.30;;;10.00;99.90;;;;;;5037527;28;20468;-77
2022/10/04 08:30:09;;;;;;;14.87;13.77;;;10.10;99.90;;;;;;5033263;28;20215;-79
2022/10/04 08:32:50;;;;;;;16.23;15.03;;;10.30;99.90;;;;;;5033651;28;20195;-79
2022/10/04 08:35:33;;;;;;;15.07;13.97;;;10.40;99.90;;;;;;5034257;28;20257;-78
2022/10/04 08:38:21;;;;;;;13.00;12.00;;;10.30;99.90;;;;;;5031762;28;20223;-78
2022/10/04 08:41:26;;;;;;;14.63;13.63;;;10.40;99.90;;;;;;5051209;28;20200;-78
2022/10/04 08:44:41;;;;;;;16.57;15.33;;;10.40;99.90;;;;;;5033664;28;20257;-78
2022/10/04 08:47:49;;;;;;;11.30;10.23;;;10.60;99.90;;;;;;5046539;28;20222;-78
2022/10/04 08:50:48;;;;;;;7.93;6.70;;;10.90;99.90;;;;;;5057894;28;20392;-78
2022/10/04 08:53:44;;;;;;;8.20;6.43;;;11.10;99.90;;;;;;5057596;28;20639;-77
2022/10/04 08:56:21;;;;;;;7.00;6.33;;;11.20;99.90;;;;;;5060549;28;20205;-78
2022/10/04 08:59:24;;;;;;;7.20;6.50;;;11.10;99.90;;;;;;5054842;28;20274;-78
2022/10/04 09:02:16;;;;;;;6.57;5.97;;;11.30;99.90;;;;;;5047002;28;20213;-78
2022/10/04 09:05:13;;;;;;;6.70;6.00;;;11.60;99.90;;;;;;5052596;28;20206;-79
2022/10/04 09:08:20;;;;;;;10.70;9.90;;;11.80;99.90;;;;;;5073775;28;20228;-78
2022/10/04 09:11:17;;;;;;;8.53;7.80;;;12.20;99.90;;;;;;5062585;28;20259;-79
2022/10/04 09:14:00;;;;;;;15.40;14.30;;;12.80;99.90;;;;;;5059317;28;20704;-78
2022/10/04 09:16:35;;;;;;;11.67;10.73;;;13.00;99.90;;;;;;5067500;28;20191;-79
2022/10/04 09:19:38;;;;;;;14.60;13.30;;;13.30;99.90;;;;;;5057170;28;20222;-78
2022/10/04 09:22:17;;;;;;;14.67;13.27;;;13.40;99.90;;;;;;4980737;28;20203;-78
2022/10/04 09:25:07;;;;;;;13.50;12.53;;;13.50;99.90;;;;;;5055455;28;20183;-78
2022/10/04 09:27:57;;;;;;;13.20;12.20;;;13.90;99.90;;;;;;5062583;28;20219;-79
2022/10/04 09:30:42;;;;;;;13.43;12.53;;;14.40;99.90;;;;;;5070263;28;20291;-78
2022/10/04 09:33:31;;;;;;;13.73;12.73;;;14.50;99.90;;;;;;5071385;28;20705;-79
2022/10/04 09:36:16;;;;;;;12.37;11.23;;;14.50;99.90;;;;;;5051826;28;20216;-79
2022/10/04 09:39:03;;;;;;;12.37;11.47;;;14.30;99.90;;;;;;5043459;28;20226;-79
2022/10/04 09:41:42;;;;;;;13.13;12.23;;;14.30;99.90;;;;;;5053183;28;20276;-78
2022/10/04 09:44:44;;;;;;;5.50;5.00;;;14.50;99.90;;;;;;5058829;28;20216;-80
2022/10/04 09:47:30;;;;;;;12.80;11.90;;;14.60;99.90;;;;;;5060357;28;20228;-79
2022/10/04 09:50:34;;;;;;;13.03;12.00;;;14.60;99.90;;;;;;5062499;28;20196;-79
2022/10/04 09:53:19;;;;;;;10.80;10.00;;;14.70;99.90;;;;;;5052633;28;20202;-80
2022/10/04 09:56:08;;;;;;;12.07;11.17;;;15.10;99.90;;;;;;5057406;28;20304;-79
2022/10/04 09:59:11;;;;;;;7.77;5.73;;;14.90;99.90;;;;;;5077565;22;20235;-80
2022/10/04 10:01:44;;;;;;;13.63;12.57;;;14.70;99.90;;;;;;5059260;28;20216;-79
2022/10/04 10:04:39;;;;;;;12.70;11.70;;;14.60;99.90;;;;;;5078708;28;20189;-79
2022/10/04 10:07:25;;;;;;;13.47;12.47;;;14.80;99.90;;;;;;5069609;28;20244;-79
2022/10/04 10:15:58;;;;;;;5.30;4.80;;;15.00;99.90;;;;;;5037967;28;20267;-79
2022/10/04 10:18:40;;;;;;;6.23;4.93;;;14.80;99.90;;;;;;5036649;28;20215;-81
2022/10/04 10:21:27;;;;;;;6.57;4.90;;;14.80;99.90;;;;;;5046061;28;20199;-79
2022/10/04 10:24:19;;;;;;;4.80;4.30;;;14.90;99.90;;;;;;5044766;28;20709;-79
2022/10/04 10:27:01;;;;;;;12.43;11.60;;;15.20;99.90;;;;;;5042359;28;20268;-79
2022/10/04 10:30:02;;;;;;;5.73;5.20;;;15.30;99.90;;;;;;5039235;28;20227;-80
2022/10/04 10:33:07;;;;;;;8.47;6.33;;;15.30;99.90;;;;;;5038661;28;20199;-79
2022/10/04 10:35:59;;;;;;;6.10;5.50;;;15.00;99.90;;;;;;4980915;28;20199;-79
2022/10/04 10:38:39;;;;;;;6.80;5.80;;;14.70;99.90;;;;;;5022711;28;20237;-79
2022/10/04 10:41:29;;;;;;;10.27;9.57;;;14.80;99.90;;;;;;5042583;28;20201;-79
2022/10/04 10:44:08;;;;;;;9.43;6.93;;;15.10;99.90;;;;;;5042041;28;20695;-80
2022/10/04 10:46:57;;;;;;;12.77;11.80;;;15.20;99.90;;;;;;5034619;28;20199;-79
2022/10/04 10:49:41;;;;;;;13.17;12.17;;;15.10;99.90;;;;;;5035592;28;20218;-80
2022/10/04 10:52:43;;;;;;;12.60;11.50;;;15.20;99.90;;;;;;5027379;28;20724;-79
2022/10/04 10:55:28;;;;;;;12.10;11.10;;;15.40;99.90;;;;;;5043372;28;20296;-79
2022/10/04 10:58:34;;;;;;;12.07;10.87;;;15.50;99.90;;;;;;5028128;28;20242;-78
2022/10/04 11:01:20;;;;;;;11.83;10.83;;;15.50;99.90;;;;;;5054554;28;20249;-81
2022/10/04 11:04:35;;;;;;;12.30;10.97;;;15.50;99.90;;;;;;5038655;28;20645;-81
2022/10/04 11:07:19;;;;;;;11.37;10.57;;;15.40;99.90;;;;;;4998883;28;20212;-81
2022/10/04 11:10:14;;;;;;;12.03;10.90;;;15.50;99.90;;;;;;5020915;28;20215;-77
2022/10/04 11:13:24;;;;;;;12.00;11.20;;;15.60;99.90;;;;;;4993859;28;20213;-75
2022/10/04 11:16:21;;;;;;;12.13;11.17;;;15.60;99.90;;;;;;5032042;28;20216;-78
2022/10/04 11:19:31;;;;;;;5.07;3.87;;;15.60;99.90;;;;;;5031223;28;20640;-77
2022/10/04 11:22:43;;;;;;;6.20;5.20;;;15.70;99.90;;;;;;4982880;28;20218;-77
2022/10/04 11:25:34;;;;;;;5.00;4.30;;;15.80;99.90;;;;;;5038155;28;20200;-77
2022/10/04 11:28:11;;;;;;;4.83;4.27;;;15.80;99.90;;;;;;5039616;28;20242;-77
2022/10/04 11:31:08;;;;;;;11.07;10.07;;;15.80;99.90;;;;;;5030089;28;20202;-77
2022/10/04 11:34:10;;;;;;;12.70;11.70;;;15.90;99.90;;;;;;5033334;28;20207;-78
2022/10/04 11:36:48;;;;;;;13.23;12.30;;;15.90;99.90;;;;;;5034124;28;20199;-77
2022/10/04 11:39:43;;;;;;;12.97;12.00;;;15.90;99.90;;;;;;5040778;28;20272;-79
2022/10/04 11:42:25;;;;;;;11.73;10.80;;;15.90;99.90;;;;;;5039735;28;20661;-80
2022/10/04 11:45:14;;;;;;;12.27;11.40;;;15.90;99.90;;;;;;5037250;28;20695;-79
2022/10/04 11:47:58;;;;;;;11.83;10.97;;;15.80;99.90;;;;;;5034454;28;20289;-81
2022/10/04 11:50:46;;;;;;;12.33;11.33;;;15.80;99.90;;;;;;5050476;28;20202;-83
2022/10/04 11:53:39;;;;;;;5.63;4.70;;;15.80;99.90;;;;;;5040551;28;20200;-81
2022/10/04 11:56:29;;;;;;;5.53;5.03;;;15.90;99.90;;;;;;5039759;28;20731;-81
2022/10/04 11:59:20;;;;;;;7.60;6.90;;;16.00;99.90;;;;;;5036342;28;20227;-82
2022/10/04 12:02:15;;;;;;;8.50;7.67;;;16.10;99.90;;;;;;5036266;28;20668;-81
2022/10/04 12:05:18;;;;;;;11.20;10.13;;;16.20;99.90;;;;;;5031957;28;20257;-81
2022/10/04 12:08:01;;;;;;;11.70;10.97;;;16.20;99.90;;;;;;5008777;28;20233;-80
2022/10/04 12:10:34;;;;;;;10.63;9.90;;;16.20;99.90;;;;;;5022674;28;20192;-80
2022/10/04 12:13:36;;;;;;;13.07;12.07;;;16.30;99.90;;;;;;5016082;28;20208;-80
2022/10/04 12:16:47;;;;;;;12.17;11.20;;;16.20;99.90;;;;;;5039680;28;20217;-80
2022/10/04 12:19:44;;;;;;;11.90;11.00;;;16.30;99.90;;;;;;5042776;28;20214;-80
2022/10/04 12:22:37;;;;;;;11.60;10.77;;;16.40;99.90;;;;;;5040035;28;20203;-81
2022/10/04 12:25:47;;;;;;;12.10;11.10;;;16.50;99.90;;;;;;5042756;28;20724;-80
2022/10/04 12:28:35;;;;;;;12.83;11.90;;;16.50;99.90;;;;;;5041963;28;20232;-80
2022/10/04 12:31:21;;;;;;;11.90;10.97;;;16.50;99.90;;;;;;4997577;28;20294;-80
2022/10/04 12:33:56;;;;;;;12.07;11.23;;;16.50;99.90;;;;;;5038333;28;20253;-81
2022/10/04 12:36:34;;;;;;;11.40;10.50;;;16.50;99.90;;;;;;5037086;28;20259;-82
2022/10/04 12:39:23;;;;;;;7.33;6.67;;;16.60;99.90;;;;;;5038253;28;20359;-81
2022/10/04 12:42:01;;;;;;;10.57;9.77;;;16.60;99.90;;;;;;5031124;28;20210;-82
2022/10/04 12:44:41;;;;;;;5.57;4.87;;;16.80;99.90;;;;;;5022677;28;20203;-81
2022/10/04 12:47:43;;;;;;;8.63;4.90;;;16.80;99.90;;;;;;5029301;28;20608;-82
2022/10/04 12:50:21;;;;;;;4.70;4.30;;;16.90;99.90;;;;;;5034942;28;20195;-82
2022/10/04 12:52:55;;;;;;;5.47;4.80;;;16.90;99.90;;;;;;5037052;28;20206;-81
2022/10/04 12:55:46;;;;;;;5.43;4.70;;;16.90;99.90;;;;;;5034357;28;20200;-79
2022/10/04 12:58:22;;;;;;;4.90;4.37;;;17.10;99.90;;;;;;5039104;28;20587;-82
2022/10/04 13:00:53;;;;;;;6.70;4.93;;;17.10;99.90;;;;;;5041792;28;20726;-82
2022/10/04 13:03:34;;;;;;;6.50;6.00;;;17.00;99.90;;;;;;5041788;28;20221;-82
2022/10/04 13:06:13;;;;;;;8.47;7.70;;;17.00;99.90;;;;;;5049970;28;20208;-83
2022/10/04 13:09:00;;;;;;;13.23;9.17;;;17.10;99.90;;;;;;5043017;28;20227;-83
2022/10/04 13:11:50;;;;;;;10.73;10.03;;;17.00;99.90;;;;;;5039559;28;20215;-83
2022/10/04 13:14:53;;;;;;;14.03;12.70;;;17.00;99.90;;;;;;5054942;28;20201;-83
2022/10/04 13:17:32;;;;;;;11.43;10.63;;;17.00;99.90;;;;;;5043579;28;20684;-82
2022/10/04 13:20:15;;;;;;;11.00;10.30;;;17.10;99.90;;;;;;5045935;28;20219;-82
2022/10/04 13:22:47;;;;;;;11.13;10.37;;;17.10;99.90;;;;;;5035984;28;20206;-82
2022/10/04 13:25:40;;;;;;;11.17;10.33;;;17.10;99.90;;;;;;5050548;28;20196;-83
2022/10/04 13:28:19;;;;;;;11.27;10.50;;;17.30;99.90;;;;;;5046741;28;20246;-82
2022/10/04 13:30:50;;;;;;;10.83;10.13;;;17.30;99.90;;;;;;5039616;28;20367;-82
2022/10/04 13:33:25;;;;;;;10.73;10.03;;;17.30;99.90;;;;;;5043844;28;20199;-82
2022/10/04 13:36:00;;;;;;;10.90;10.10;;;17.40;99.90;;;;;;5021365;28;20231;-83
2022/10/04 13:38:56;;;;;;;10.70;10.00;;;17.40;99.90;;;;;;5022179;28;20237;-83
2022/10/04 13:41:36;;;;;;;11.07;10.30;;;17.40;99.90;;;;;;5034715;28;20704;-82
2022/10/04 13:44:30;;;;;;;10.60;9.90;;;17.50;99.90;;;;;;5023298;28;20251;-83
2022/10/04 13:47:16;;;;;;;10.33;9.63;;;17.50;99.90;;;;;;5019342;28;20228;-83
2022/10/04 13:49:58;;;;;;;10.83;10.23;;;17.60;99.90;;;;;;5017536;28;20216;-80
2022/10/04 13:58:32;;;;;;;10.90;10.13;;;17.50;99.90;;;;;;4947956;28;20225;-80